Time;durP1;ratioP1;P1;durP2;ratioP2;P2;SDS_P1;SDS_P2;PMS_P1;PMS_P2;Temp;Humidity;BMP_temperature;BMP_pressure;BME280_temperature;BME280_humidity;BME280_pressure;Samples;Min_cycle;Max_cycle;Signal;HPM_P1;HPM_P2
2023/08/24 00:00:48;;;;;;;17.80;8.10;;;;;;;22.14;68.91;101134.50;107259;1257;109617;-61
2023/08/24 00:03:32;;;;;;;17.60;7.40;;;;;;;22.12;69.09;101127.23;107387;1255;107654;-61
2023/08/24 00:06:01;;;;;;;13.50;6.60;;;;;;;22.10;68.89;101124.36;107286;1254;97820;-61
2023/08/24 00:08:29;;;;;;;13.50;7.20;;;;;;;22.10;68.87;101121.06;107366;1257;98375;-60
2023/08/24 00:10:57;;;;;;;17.30;7.50;;;;;;;22.10;68.95;101127.17;107360;1259;111293;-61
2023/08/24 00:13:25;;;;;;;20.30;7.10;;;;;;;22.08;69.16;101129.11;107385;1255;108845;-62
2023/08/24 00:15:54;;;;;;;16.40;6.80;;;;;;;22.05;69.03;101131.09;107359;1258;107734;-61
2023/08/24 00:18:24;;;;;;;18.30;6.80;;;;;;;22.04;69.01;101132.30;107381;1257;97826;-62
2023/08/24 00:20:52;;;;;;;11.30;6.90;;;;;;;22.01;69.35;101134.55;107366;1256;98491;-61
2023/08/24 00:23:20;;;;;;;14.20;6.50;;;;;;;21.99;69.58;101134.23;107379;1254;111753;-61
2023/08/24 00:25:49;;;;;;;13.80;7.10;;;;;;;21.98;69.44;101133.11;107363;1257;109694;-62
2023/08/24 00:28:18;;;;;;;16.50;7.40;;;;;;;21.94;69.62;101132.27;107317;1257;109736;-61
2023/08/24 00:30:46;;;;;;;16.30;7.50;;;;;;;21.92;69.53;101132.04;107378;1257;98072;-62
2023/08/24 00:33:14;;;;;;;12.40;6.80;;;;;;;21.92;69.67;101130.86;107352;1254;97729;-61
2023/08/24 00:35:43;;;;;;;14.80;7.50;;;;;;;21.90;69.54;101129.80;107433;1254;112292;-61
2023/08/24 00:38:11;;;;;;;16.90;7.00;;;;;;;21.88;69.59;101129.98;107380;1257;108919;-62
2023/08/24 00:40:42;;;;;;;15.80;7.60;;;;;;;21.84;69.62;101132.33;107379;1257;107929;-63
2023/08/24 00:43:11;;;;;;;15.10;7.30;;;;;;;21.79;69.48;101132.55;107315;1256;97912;-60
2023/08/24 00:45:40;;;;;;;13.90;7.60;;;;;;;21.76;69.68;101128.02;107281;1260;97847;-61
2023/08/24 00:48:09;;;;;;;13.90;7.10;;;;;;;21.71;69.60;101122.86;107430;1259;111309;-59
2023/08/24 00:50:39;;;;;;;14.60;7.30;;;;;;;21.69;69.67;101119.44;107400;1257;109689;-61
2023/08/24 00:53:07;;;;;;;10.90;7.00;;;;;;;21.63;69.99;101118.73;107339;1254;108621;-61
2023/08/24 00:55:35;;;;;;;17.30;7.70;;;;;;;21.58;70.19;101115.83;107256;1260;97823;-61
2023/08/24 00:58:04;;;;;;;14.90;6.40;;;;;;;21.55;70.53;101115.29;107374;1257;98440;-61
2023/08/24 01:00:33;;;;;;;15.90;6.40;;;;;;;21.51;71.21;101119.50;107392;1259;111696;-63
2023/08/24 01:03:01;;;;;;;17.00;7.40;;;;;;;21.45;71.26;101114.96;107421;1254;109572;-61
2023/08/24 01:05:30;;;;;;;10.40;7.40;;;;;;;21.42;71.09;101110.05;107378;1254;108684;-62
2023/08/24 01:07:58;;;;;;;13.00;6.40;;;;;;;21.41;71.41;101106.21;107408;1259;97841;-61
2023/08/24 01:10:37;;;;;;;19.60;6.40;;;;;;;21.38;71.94;101108.73;107373;1257;97717;-61
2023/08/24 01:13:20;;;;;;;16.20;7.60;;;;;;;21.34;71.79;101107.85;107381;1254;111809;-61
2023/08/24 01:16:00;;;;;;;14.60;7.30;;;;;;;21.31;71.49;101110.57;107375;1257;109927;-61
2023/08/24 01:18:30;;;;;;;13.20;7.20;;;;;;;21.29;71.86;101102.23;107286;1257;107666;-61
2023/08/24 01:20:58;;;;;;;10.70;6.80;;;;;;;21.32;71.80;101102.31;107374;1258;97834;-62
2023/08/24 01:23:42;;;;;;;13.10;6.90;;;;;;;21.32;72.50;101104.14;107366;1254;97902;-62
2023/08/24 01:26:20;;;;;;;13.90;7.00;;;;;;;21.25;73.21;101106.03;107369;1258;110823;-62
2023/08/24 01:28:50;;;;;;;15.30;6.90;;;;;;;21.20;73.22;101102.33;107371;1257;109195;-61
2023/08/24 01:31:18;;;;;;;17.20;7.40;;;;;;;21.14;73.48;101107.25;107302;1256;107833;-61
2023/08/24 01:33:48;;;;;;;14.00;6.40;;;;;;;21.10;73.39;101108.68;107387;1255;97807;-62
2023/08/24 01:36:19;;;;;;;17.40;6.70;;;;;;;21.06;73.00;101109.70;107282;1255;97873;-61
2023/08/24 01:39:13;;;;;;;20.70;6.90;;;;;;;21.07;73.13;101108.36;107369;1254;112142;-61
2023/08/24 01:41:47;;;;;;;12.30;7.40;;;;;;;21.09;73.13;101100.67;107376;1257;108863;-61
2023/08/24 01:44:20;;;;;;;15.20;7.10;;;;;;;21.10;72.90;101107.27;107375;1254;108220;-62
2023/08/24 01:46:49;;;;;;;15.40;7.20;;;;;;;21.09;72.86;101104.77;107361;1258;97788;-60
2023/08/24 01:49:19;;;;;;;13.50;7.00;;;;;;;21.05;73.09;101109.31;107375;1257;97828;-62
2023/08/24 01:51:49;;;;;;;10.30;6.40;;;;;;;21.02;73.06;101103.86;107198;1254;111598;-61
2023/08/24 01:54:17;;;;;;;19.80;7.20;;;;;;;21.02;72.98;101105.85;107406;1254;109038;-62
2023/08/24 01:56:46;;;;;;;10.80;7.20;;;;;;;21.03;72.97;101107.02;107225;1257;108175;-60
2023/08/24 01:59:14;;;;;;;20.90;6.70;;;;;;;21.04;73.07;101107.59;107348;1258;97852;-61
2023/08/24 02:01:43;;;;;;;12.40;6.70;;;;;;;21.04;73.29;101103.15;107151;1254;97793;-61
2023/08/24 02:04:11;;;;;;;15.60;6.90;;;;;;;21.05;73.31;101106.58;107398;1254;111425;-60
2023/08/24 02:06:39;;;;;;;10.00;6.70;;;;;;;21.07;73.21;101105.50;107350;1257;109781;-61
2023/08/24 02:09:07;;;;;;;16.80;8.00;;;;;;;21.07;73.41;101103.90;107372;1257;108240;-61
2023/08/24 02:11:36;;;;;;;17.00;6.80;;;;;;;21.09;73.34;101107.71;107340;1260;97839;-61
2023/08/24 02:14:04;;;;;;;20.00;6.50;;;;;;;21.11;73.18;101105.33;107413;1255;97744;-61
2023/08/24 02:16:37;;;;;;;13.50;6.30;;;;;;;21.11;73.04;101110.34;107392;1254;111166;-62
2023/08/24 02:19:06;;;;;;;12.70;7.00;;;;;;;21.11;72.92;101102.84;107367;1258;109991;-69
2023/08/24 02:21:36;;;;;;;10.90;6.50;;;;;;;21.11;72.85;101103.27;107366;1254;108039;-61
2023/08/24 02:24:05;;;;;;;17.30;7.50;;;;;;;21.10;72.78;101106.30;107383;1255;97914;-59
2023/08/24 02:26:33;;;;;;;14.20;7.00;;;;;;;21.09;72.77;101105.48;107405;1254;97816;-60
2023/08/24 02:29:02;;;;;;;14.50;7.20;;;;;;;21.07;72.95;101105.93;107266;1259;112347;-60
2023/08/24 02:31:30;;;;;;;12.50;6.00;;;;;;;21.04;73.00;101104.85;107268;1254;109271;-60
2023/08/24 02:33:58;;;;;;;16.70;6.60;;;;;;;21.05;73.27;101103.04;107265;1254;108214;-61
2023/08/24 02:36:28;;;;;;;24.10;8.00;;;;;;;21.05;73.39;101101.83;107239;1257;97758;-60
2023/08/24 02:38:57;;;;;;;17.60;8.10;;;;;;;21.06;73.05;101107.60;107352;1259;97957;-60
2023/08/24 02:41:26;;;;;;;10.40;6.80;;;;;;;21.07;73.01;101105.63;107364;1257;112211;-60
2023/08/24 02:43:54;;;;;;;11.80;6.70;;;;;;;21.09;73.11;101104.43;107375;1258;110019;-62
2023/08/24 02:46:23;;;;;;;15.30;7.50;;;;;;;21.12;73.15;101107.77;107351;1260;108609;-61
2023/08/24 02:48:51;;;;;;;13.00;8.10;;;;;;;21.11;73.07;101106.22;107354;1258;97927;-60
2023/08/24 02:51:22;;;;;;;21.20;7.10;;;;;;;21.11;72.88;101109.99;107187;1257;98383;-61
2023/08/24 02:53:51;;;;;;;15.40;7.50;;;;;;;21.08;72.65;101110.69;107370;1254;111682;-62
2023/08/24 02:56:21;;;;;;;8.80;6.10;;;;;;;21.06;72.43;101111.97;107399;1257;109704;-61
2023/08/24 02:58:50;;;;;;;14.40;7.40;;;;;;;21.02;72.66;101109.33;107234;1254;108289;-64
2023/08/24 03:01:19;;;;;;;16.20;8.20;;;;;;;21.01;72.87;101107.70;107361;1257;97928;-61
2023/08/24 03:03:47;;;;;;;18.20;8.60;;;;;;;21.02;73.42;101110.09;107233;1260;97780;-62
2023/08/24 03:06:16;;;;;;;20.40;7.80;;;;;;;21.00;73.52;101109.83;107319;1257;111768;-60
2023/08/24 03:08:44;;;;;;;19.40;8.00;;;;;;;20.95;73.32;101110.91;107394;1257;109444;-62
2023/08/24 03:11:13;;;;;;;11.60;8.20;;;;;;;20.94;73.72;101114.81;107361;1256;108217;-60
2023/08/24 03:13:41;;;;;;;19.50;8.30;;;;;;;20.92;74.23;101116.64;107348;1257;97835;-61
2023/08/24 03:16:09;;;;;;;16.30;8.40;;;;;;;20.88;74.05;101118.05;107377;1258;98020;-61
2023/08/24 03:18:38;;;;;;;12.50;7.40;;;;;;;20.88;74.40;101126.63;107262;1255;112236;-61
2023/08/24 03:21:06;;;;;;;16.00;7.90;;;;;;;20.88;74.59;101124.98;107065;1263;109253;-60
2023/08/24 03:23:35;;;;;;;24.30;8.50;;;;;;;20.87;74.70;101127.70;107309;1259;108260;-60
2023/08/24 03:26:03;;;;;;;19.60;8.40;;;;;;;20.86;74.77;101135.60;107390;1257;97844;-61
2023/08/24 03:28:33;;;;;;;21.20;7.90;;;;;;;20.88;75.47;101138.83;107397;1258;97919;-61
2023/08/24 03:31:02;;;;;;;17.40;8.40;;;;;;;20.89;75.88;101149.48;107248;1259;111465;-62
2023/08/24 03:33:30;;;;;;;22.50;8.00;;;;;;;20.88;75.71;101151.91;107273;1257;109406;-61
2023/08/24 03:35:59;;;;;;;21.70;7.80;;;;;;;20.88;75.40;101153.13;107339;1257;107941;-61
2023/08/24 03:38:28;;;;;;;19.10;8.20;;;;;;;20.88;75.52;101151.20;107357;1257;97829;-62
2023/08/24 03:41:02;;;;;;;17.00;8.80;;;;;;;20.89;75.27;101153.60;107359;1260;99152;-61
2023/08/24 03:43:36;;;;;;;15.30;8.10;;;;;;;20.93;75.14;101153.35;107389;1256;111411;-61
2023/08/24 03:46:05;;;;;;;14.20;8.80;;;;;;;20.93;75.38;101156.63;107375;1258;110834;-60
2023/08/24 03:48:34;;;;;;;22.20;8.90;;;;;;;20.92;75.50;101159.30;107239;1257;107932;-62
2023/08/24 03:51:02;;;;;;;14.40;7.90;;;;;;;20.91;75.66;101160.82;107313;1260;97857;-62
2023/08/24 03:53:32;;;;;;;20.50;8.70;;;;;;;20.93;75.46;101160.48;107271;1258;97720;-60
2023/08/24 03:56:02;;;;;;;17.80;9.00;;;;;;;20.96;75.71;101159.22;107387;1257;111522;-61
2023/08/24 03:58:30;;;;;;;16.50;8.30;;;;;;;20.95;75.91;101162.70;107378;1254;109388;-61
2023/08/24 04:01:00;;;;;;;20.50;10.00;;;;;;;20.96;76.48;101158.84;107373;1254;107729;-61
2023/08/24 04:03:28;;;;;;;26.50;9.60;;;;;;;20.95;76.00;101159.96;107275;1254;97631;-62
2023/08/24 04:05:56;;;;;;;26.80;9.30;;;;;;;20.99;76.20;101164.05;107399;1257;97719;-62
2023/08/24 04:08:25;;;;;;;21.90;9.60;;;;;;;21.03;76.07;101165.63;107377;1254;111227;-63
2023/08/24 04:10:53;;;;;;;18.90;9.30;;;;;;;21.02;76.17;101167.52;107133;1257;109421;-61
2023/08/24 04:13:22;;;;;;;24.40;9.40;;;;;;;21.04;76.17;101169.82;107344;1259;108320;-62
2023/08/24 04:15:51;;;;;;;21.60;9.10;;;;;;;21.05;76.66;101169.19;107356;1258;97943;-62
2023/08/24 04:18:19;;;;;;;15.50;9.50;;;;;;;21.04;76.51;101169.68;107287;1260;98373;-61
2023/08/24 04:20:52;;;;;;;15.70;8.50;;;;;;;21.04;76.01;101173.81;107371;1257;111661;-62
2023/08/24 04:23:25;;;;;;;22.20;9.60;;;;;;;21.10;76.27;101171.27;107398;1258;109955;-63
2023/08/24 04:25:54;;;;;;;18.30;8.90;;;;;;;21.16;76.05;101171.45;107309;1260;107604;-64
2023/08/24 04:28:23;;;;;;;21.40;9.30;;;;;;;21.22;75.84;101174.61;107324;1254;97835;-63
2023/08/24 04:30:57;;;;;;;27.10;11.00;;;;;;;21.24;75.44;101173.66;107338;1254;97850;-62
2023/08/24 04:33:25;;;;;;;19.70;9.90;;;;;;;21.24;76.42;101174.23;107390;1258;112152;-63
2023/08/24 04:35:53;;;;;;;15.10;8.90;;;;;;;21.24;76.00;101176.70;107347;1257;109856;-62
2023/08/24 04:38:22;;;;;;;22.20;9.70;;;;;;;21.27;76.16;101174.48;107366;1257;108350;-62
2023/08/24 04:40:54;;;;;;;19.50;8.60;;;;;;;21.32;76.15;101176.98;107338;1254;97866;-61
2023/08/24 04:43:24;;;;;;;15.90;9.30;;;;;;;21.34;75.95;101174.95;107434;1254;97841;-61
2023/08/24 04:45:53;;;;;;;20.00;10.40;;;;;;;21.37;76.24;101180.80;107387;1257;112423;-61
2023/08/24 04:48:23;;;;;;;14.20;9.40;;;;;;;21.39;76.08;101176.48;107351;1257;109676;-62
2023/08/24 04:50:56;;;;;;;23.80;10.20;;;;;;;21.43;76.11;101182.40;107399;1254;107975;-60
2023/08/24 04:53:26;;;;;;;19.10;9.50;;;;;;;21.47;76.38;101184.12;107341;1254;97823;-61
2023/08/24 04:55:54;;;;;;;16.30;10.40;;;;;;;21.52;76.50;101185.38;107362;1257;98334;-61
2023/08/24 04:58:23;;;;;;;18.40;10.80;;;;;;;21.57;76.44;101181.59;107408;1254;111799;-63
2023/08/24 05:00:51;;;;;;;18.10;9.70;;;;;;;21.63;76.54;101188.77;107350;1254;110104;-62
2023/08/24 05:03:19;;;;;;;19.70;10.30;;;;;;;21.69;76.67;101186.17;107343;1257;108069;-62
2023/08/24 05:05:48;;;;;;;15.40;10.00;;;;;;;21.72;76.55;101188.34;107314;1254;97904;-62
2023/08/24 05:08:16;;;;;;;14.90;10.50;;;;;;;21.73;77.05;101190.70;107365;1260;97910;-60
2023/08/24 05:10:45;;;;;;;18.10;10.40;;;;;;;21.75;77.05;101193.86;107364;1257;111923;-60
2023/08/24 05:13:14;;;;;;;15.10;10.80;;;;;;;21.76;76.75;101193.70;107389;1257;109613;-63
2023/08/24 05:15:42;;;;;;;22.10;10.80;;;;;;;21.76;77.23;101188.77;107358;1254;110109;-63
2023/08/24 05:18:11;;;;;;;27.90;13.50;;;;;;;21.78;77.12;101191.56;107351;1255;97820;-61
2023/08/24 05:20:39;;;;;;;20.20;13.40;;;;;;;21.77;77.52;101193.67;107352;1257;97835;-61
2023/08/24 05:23:07;;;;;;;21.00;10.90;;;;;;;21.78;76.86;101192.45;107351;1259;111238;-62
2023/08/24 05:25:35;;;;;;;14.80;10.60;;;;;;;21.85;77.42;101194.18;107380;1254;109731;-62
2023/08/24 05:28:04;;;;;;;18.10;10.30;;;;;;;21.85;77.32;101196.45;107272;1254;107106;-62
2023/08/24 05:30:32;;;;;;;19.20;10.40;;;;;;;21.88;77.05;101195.98;107356;1257;97932;-60
2023/08/24 05:33:00;;;;;;;17.40;9.90;;;;;;;21.94;76.95;101197.77;107389;1254;98488;-61
2023/08/24 05:35:29;;;;;;;25.70;11.70;;;;;;;22.01;76.73;101197.23;107366;1254;112532;-61
2023/08/24 05:37:57;;;;;;;28.40;12.20;;;;;;;22.06;76.56;101195.48;107361;1254;110429;-61
2023/08/24 05:40:25;;;;;;;21.00;12.70;;;;;;;22.10;76.31;101193.52;107094;1256;108162;-60
2023/08/24 05:42:54;;;;;;;28.40;11.00;;;;;;;22.15;76.22;101189.34;107321;1254;97826;-61
2023/08/24 05:45:22;;;;;;;19.20;10.90;;;;;;;22.21;76.01;101185.95;107374;1257;96790;-60
2023/08/24 05:47:54;;;;;;;26.30;13.00;;;;;;;22.25;76.14;101189.73;107339;1254;111316;-62
2023/08/24 05:50:23;;;;;;;19.90;12.00;;;;;;;22.27;75.86;101179.73;107360;1254;109033;-61
2023/08/24 05:52:51;;;;;;;26.70;13.40;;;;;;;22.36;75.64;101188.33;107352;1254;106629;-62
2023/08/24 05:55:20;;;;;;;19.50;11.80;;;;;;;22.44;75.75;101185.92;107355;1257;97908;-62
2023/08/24 05:57:48;;;;;;;23.70;12.40;;;;;;;22.47;75.44;101183.09;107335;1254;97918;-62
2023/08/24 06:00:18;;;;;;;27.70;11.80;;;;;;;22.48;75.10;101181.29;107339;1257;112262;-60
2023/08/24 06:02:46;;;;;;;29.00;15.10;;;;;;;22.53;75.05;101180.29;107354;1258;108480;-61
2023/08/24 06:05:15;;;;;;;30.60;14.60;;;;;;;22.57;75.09;101182.58;107318;1254;108718;-64
2023/08/24 06:07:45;;;;;;;25.50;11.50;;;;;;;22.59;74.98;101177.86;107369;1254;97914;-62
2023/08/24 06:10:13;;;;;;;25.70;12.00;;;;;;;22.66;74.63;101175.90;107390;1254;97718;-61
2023/08/24 06:12:42;;;;;;;17.90;11.80;;;;;;;22.73;74.72;101178.06;107395;1254;112309;-62
2023/08/24 06:15:12;;;;;;;20.40;12.20;;;;;;;22.74;74.59;101177.27;107392;1254;108650;-61
2023/08/24 06:17:41;;;;;;;18.50;11.40;;;;;;;22.78;74.50;101181.51;107367;1254;107853;-62
2023/08/24 06:20:10;;;;;;;29.30;12.70;;;;;;;22.82;74.68;101179.33;107360;1254;97816;-63
2023/08/24 06:22:38;;;;;;;23.30;14.80;;;;;;;22.91;74.37;101177.30;107394;1254;97909;-62
2023/08/24 06:25:08;;;;;;;22.50;11.40;;;;;;;23.02;74.28;101179.92;107345;1257;111791;-61
2023/08/24 06:27:37;;;;;;;27.60;12.20;;;;;;;23.12;73.90;101177.30;107339;1256;108440;-60
2023/08/24 06:30:06;;;;;;;24.90;11.70;;;;;;;23.23;73.61;101177.12;107371;1254;108242;-61
2023/08/24 06:32:34;;;;;;;22.90;12.80;;;;;;;23.34;73.44;101173.45;107356;1257;97735;-62
2023/08/24 06:35:03;;;;;;;25.70;10.80;;;;;;;23.41;73.10;101174.50;107386;1254;97809;-62
2023/08/24 06:37:32;;;;;;;20.40;11.60;;;;;;;23.47;72.71;101173.09;107377;1254;112418;-62
2023/08/24 06:40:02;;;;;;;29.50;13.00;;;;;;;23.57;72.42;101174.52;107361;1254;109243;-61
2023/08/24 06:42:30;;;;;;;23.90;13.10;;;;;;;23.66;72.09;101172.95;107387;1257;108619;-61
2023/08/24 06:44:59;;;;;;;18.60;11.30;;;;;;;23.75;71.85;101175.02;107360;1257;97905;-61
2023/08/24 06:47:27;;;;;;;23.80;10.50;;;;;;;23.85;71.87;101174.98;107366;1257;98394;-60
2023/08/24 06:49:56;;;;;;;16.30;10.30;;;;;;;23.97;71.60;101175.98;107351;1257;111153;-61
2023/08/24 06:52:24;;;;;;;17.00;10.10;;;;;;;24.08;71.32;101175.88;107365;1254;109369;-62
2023/08/24 06:54:55;;;;;;;13.30;9.20;;;;;;;24.15;70.56;101173.23;107330;1258;107889;-61
2023/08/24 06:57:23;;;;;;;17.20;9.90;;;;;;;24.25;70.50;101169.13;107354;1255;97828;-67
2023/08/24 06:59:52;;;;;;;14.00;9.40;;;;;;;24.34;69.61;101172.98;107369;1257;98373;-61
2023/08/24 07:02:20;;;;;;;12.20;8.30;;;;;;;24.41;69.40;101173.41;107392;1254;112353;-62
2023/08/24 07:04:49;;;;;;;12.50;7.40;;;;;;;24.51;68.91;101168.80;107377;1254;109600;-62
2023/08/24 07:07:17;;;;;;;20.90;8.90;;;;;;;24.62;68.70;101168.83;107369;1257;108446;-62
2023/08/24 07:09:45;;;;;;;13.60;7.70;;;;;;;24.76;68.37;101165.77;107237;1257;97979;-61
2023/08/24 07:12:13;;;;;;;16.00;8.40;;;;;;;24.91;67.38;101166.94;107392;1257;97863;-62
2023/08/24 07:14:41;;;;;;;9.90;7.10;;;;;;;25.07;67.48;101172.92;107360;1254;112161;-61
2023/08/24 07:17:10;;;;;;;17.60;7.50;;;;;;;25.22;66.78;101170.35;107387;1257;109778;-62
2023/08/24 07:19:38;;;;;;;16.40;7.70;;;;;;;25.38;66.00;101168.11;107362;1257;107514;-62
2023/08/24 07:22:06;;;;;;;18.30;7.00;;;;;;;25.49;64.67;101168.45;107236;1257;97830;-63
2023/08/24 07:24:36;;;;;;;13.90;7.50;;;;;;;25.59;64.49;101169.53;107362;1256;98440;-63
2023/08/24 07:27:13;;;;;;;10.80;7.30;;;;;;;25.76;63.96;101168.52;107358;1257;110999;-61
2023/08/24 07:29:41;;;;;;;13.50;6.60;;;;;;;25.91;63.19;101166.41;107391;1257;109838;-61
2023/08/24 07:32:10;;;;;;;14.20;6.30;;;;;;;26.06;60.84;101165.11;107378;1254;107254;-62
2023/08/24 07:34:38;;;;;;;11.20;6.00;;;;;;;26.18;59.31;101162.18;107357;1255;97924;-62
2023/08/24 07:37:06;;;;;;;11.90;6.00;;;;;;;26.29;59.50;101162.39;107353;1257;97928;-62
2023/08/24 07:39:38;;;;;;;16.20;6.40;;;;;;;26.39;60.20;101161.95;107361;1254;111874;-64
2023/08/24 07:42:06;;;;;;;10.40;6.80;;;;;;;26.51;59.52;101156.20;107431;1254;108785;-64
2023/08/24 07:44:35;;;;;;;9.90;6.00;;;;;;;26.62;59.62;101159.05;107298;1257;108488;-61
2023/08/24 07:47:04;;;;;;;15.80;6.70;;;;;;;26.73;58.96;101157.06;107409;1256;97813;-63
2023/08/24 07:49:32;;;;;;;12.80;6.00;;;;;;;26.80;58.68;101157.17;107387;1258;97689;-61
2023/08/24 07:52:00;;;;;;;10.10;6.40;;;;;;;26.82;57.67;101158.83;107369;1257;111838;-61
2023/08/24 07:54:28;;;;;;;17.10;6.50;;;;;;;26.80;56.79;101151.72;107387;1257;109072;-61
2023/08/24 07:56:56;;;;;;;17.20;6.90;;;;;;;26.81;56.45;101152.95;107392;1257;107826;-62
2023/08/24 07:59:25;;;;;;;15.40;6.60;;;;;;;26.82;56.34;101149.54;107349;1257;97934;-61
2023/08/24 08:01:53;;;;;;;12.00;5.80;;;;;;;26.83;55.39;101149.70;107399;1257;99553;-61
2023/08/24 08:04:21;;;;;;;9.80;5.70;;;;;;;26.89;55.43;101150.90;107430;1254;111796;-61
2023/08/24 08:06:49;;;;;;;9.60;5.30;;;;;;;27.00;55.49;101151.51;107393;1254;110231;-60
2023/08/24 08:09:18;;;;;;;15.70;6.00;;;;;;;27.08;54.59;101148.23;107387;1257;108269;-61
2023/08/24 08:11:46;;;;;;;8.30;5.60;;;;;;;27.13;53.57;101152.10;107357;1257;97812;-61
2023/08/24 08:14:14;;;;;;;33.50;7.30;;;;;;;27.19;53.49;101146.79;107355;1258;97822;-61
2023/08/24 08:16:43;;;;;;;10.10;5.10;;;;;;;27.28;53.08;101143.09;107421;1254;112136;-61
2023/08/24 08:19:11;;;;;;;47.10;10.90;;;;;;;27.42;52.11;101140.33;107352;1256;109798;-64
2023/08/24 08:21:39;;;;;;;9.90;5.60;;;;;;;27.58;51.61;101139.28;107393;1256;108092;-62
2023/08/24 08:24:08;;;;;;;10.50;5.40;;;;;;;27.72;51.55;101142.41;107369;1257;98518;-62
2023/08/24 08:26:36;;;;;;;13.50;6.00;;;;;;;27.81;51.43;101134.38;107407;1254;97912;-62
2023/08/24 08:29:05;;;;;;;16.40;5.90;;;;;;;27.94;51.13;101131.22;107409;1257;111459;-60
2023/08/24 08:31:33;;;;;;;13.40;6.20;;;;;;;28.11;51.11;101132.14;107388;1257;108779;-63
2023/08/24 08:34:04;;;;;;;9.40;4.80;;;;;;;28.28;49.29;101131.59;107387;1257;108581;-61
2023/08/24 08:36:32;;;;;;;9.70;5.10;;;;;;;28.44;48.36;101128.31;107364;1253;97841;-62
2023/08/24 08:39:03;;;;;;;9.20;4.50;;;;;;;28.59;48.49;101127.59;107408;1254;97729;-61
2023/08/24 08:41:44;;;;;;;12.70;4.60;;;;;;;28.77;47.60;101124.69;107351;1257;111780;-63
2023/08/24 08:44:14;;;;;;;15.80;5.00;;;;;;;28.89;46.79;101123.06;107366;1257;109669;-63
2023/08/24 08:46:43;;;;;;;11.80;4.90;;;;;;;29.00;46.71;101120.52;107385;1257;109161;-62
2023/08/24 08:49:15;;;;;;;7.90;4.60;;;;;;;29.10;45.93;101122.08;107402;1256;97854;-63
2023/08/24 08:51:44;;;;;;;8.60;5.00;;;;;;;29.23;45.78;101119.17;107396;1257;98576;-62
2023/08/24 08:54:12;;;;;;;9.50;5.10;;;;;;;29.43;46.48;101115.67;107381;1254;112803;-61
2023/08/24 08:56:41;;;;;;;7.50;4.50;;;;;;;29.64;46.32;101116.63;107451;1254;109805;-61
2023/08/24 08:59:14;;;;;;;9.10;5.00;;;;;;;29.84;44.61;101114.02;107411;1257;107218;-63
2023/08/24 09:01:44;;;;;;;;;;;;;;;30.02;42.41;101121.05;107403;1257;97736;-62
2023/08/24 09:04:12;;;;;;;7.40;4.30;;;;;;;30.12;41.97;101115.55;107383;1257;97915;-62
2023/08/24 09:06:40;;;;;;;4.20;3.40;;;;;;;30.32;42.40;101111.85;107389;1254;112256;-62
2023/08/24 09:09:08;;;;;;;10.50;4.50;;;;;;;30.35;41.43;101114.09;107407;1254;108066;-64
2023/08/24 09:11:38;;;;;;;6.20;3.60;;;;;;;30.39;40.90;101113.41;107367;1257;108723;-63
2023/08/24 09:14:07;;;;;;;6.50;3.60;;;;;;;30.65;41.29;101104.02;107420;1253;97915;-62
2023/08/24 09:16:35;;;;;;;12.00;4.20;;;;;;;31.00;41.14;101104.88;107309;1256;98411;-63
2023/08/24 09:19:07;;;;;;;9.00;3.90;;;;;;;31.19;40.64;101103.27;107480;1254;111974;-63
2023/08/24 09:21:39;;;;;;;6.30;3.40;;;;;;;31.53;39.85;101097.98;107399;1254;108909;-64
2023/08/24 09:24:08;;;;;;;12.10;3.90;;;;;;;31.69;38.49;101094.41;107422;1257;107708;-63
2023/08/24 09:26:42;;;;;;;5.50;3.20;;;;;;;31.74;38.60;101092.06;107435;1254;97918;-63
2023/08/24 09:29:13;;;;;;;13.50;3.80;;;;;;;31.73;38.51;101093.50;107430;1254;98369;-63
2023/08/24 09:31:45;;;;;;;10.30;4.70;;;;;;;31.60;38.41;101092.73;107418;1254;112130;-63
2023/08/24 09:34:14;;;;;;;7.20;3.80;;;;;;;31.49;38.83;101088.96;107429;1254;109303;-65
2023/08/24 09:36:43;;;;;;;9.40;3.70;;;;;;;31.74;39.20;101083.24;107380;1254;108244;-63
2023/08/24 09:39:16;;;;;;;4.20;2.80;;;;;;;32.69;37.94;101079.72;107422;1253;98539;-63
2023/08/24 09:41:49;;;;;;;5.30;3.10;;;;;;;33.53;36.72;101073.73;107476;1254;97714;-64
2023/08/24 09:44:18;;;;;;;8.00;2.70;;;;;;;34.47;35.31;101074.84;107406;1257;111625;-63
2023/08/24 09:46:47;;;;;;;6.50;2.70;;;;;;;35.37;34.37;101074.66;107421;1253;108695;-64
2023/08/24 09:49:15;;;;;;;10.20;2.80;;;;;;;36.19;32.93;101072.63;107399;1254;107346;-63
2023/08/24 09:51:44;;;;;;;10.70;4.90;;;;;;;36.91;31.77;101070.60;107391;1257;97945;-63
2023/08/24 09:54:16;;;;;;;9.20;2.70;;;;;;;37.59;30.55;101068.48;107401;1254;97851;-62
2023/08/24 09:56:48;;;;;;;16.60;3.70;;;;;;;38.18;28.59;101063.86;107164;1254;318824;-63
2023/08/24 09:59:24;;;;;;;9.50;2.40;;;;;;;38.62;28.18;101062.48;107391;1254;110029;-63
2023/08/24 10:01:57;;;;;;;9.40;2.40;;;;;;;39.09;26.71;101063.39;107365;1254;107639;-62
2023/08/24 10:04:26;;;;;;;;;;;;;;;39.35;26.21;101058.65;107208;1257;97895;-64
2023/08/24 10:07:08;;;;;;;5.80;2.10;;;;;;;39.29;26.90;101059.19;107429;1254;97930;-62
2023/08/24 10:09:45;;;;;;;6.90;2.50;;;;;;;38.56;28.21;101052.39;107386;1257;112306;-62
2023/08/24 10:12:14;;;;;;;13.80;2.60;;;;;;;37.99;28.54;101048.55;107430;1254;109037;-62
2023/08/24 10:15:06;;;;;;;8.40;2.40;;;;;;;37.46;28.96;101038.39;107347;1257;107188;-63
2023/08/24 10:17:37;;;;;;;7.50;2.00;;;;;;;36.91;29.20;101030.80;107382;1255;97835;-62
2023/08/24 10:20:09;;;;;;;5.50;2.50;;;;;;;37.19;29.46;101027.41;107411;1256;98508;-62
2023/08/24 10:22:41;;;;;;;8.80;2.80;;;;;;;38.08;28.39;101027.85;107248;1256;111069;-62
2023/08/24 10:25:09;;;;;;;4.60;2.40;;;;;;;38.92;27.83;101025.55;107432;1254;108962;-63
2023/08/24 10:27:43;;;;;;;5.50;2.30;;;;;;;39.63;25.54;101024.77;107370;1254;108356;-63
2023/08/24 10:30:12;;;;;;;12.10;2.90;;;;;;;40.14;25.38;101016.75;107421;1254;97944;-62
2023/08/24 10:32:43;;;;;;;5.10;2.40;;;;;;;40.69;25.64;101013.43;107397;1254;97853;-61
2023/08/24 10:35:15;;;;;;;6.70;2.60;;;;;;;41.27;24.92;101011.11;107450;1254;111229;-63
2023/08/24 10:37:46;;;;;;;6.90;2.40;;;;;;;41.80;23.16;101008.10;107386;1257;109127;-63
2023/08/24 10:40:33;;;;;;;3.80;2.30;;;;;;;41.96;22.72;101002.34;107310;1254;107710;-63
2023/08/24 10:43:05;;;;;;;6.80;2.20;;;;;;;42.01;22.74;101003.88;107313;1254;97847;-63
2023/08/24 10:45:56;;;;;;;14.90;2.30;;;;;;;42.13;22.78;101001.67;107402;1256;98438;-63
2023/08/24 10:48:31;;;;;;;4.50;2.10;;;;;;;42.49;22.94;101000.89;107406;1257;112024;-63
2023/08/24 10:51:19;;;;;;;4.50;2.20;;;;;;;42.70;21.16;101000.73;107412;1257;109190;-63
2023/08/24 10:53:53;;;;;;;2.00;1.70;;;;;;;42.82;22.22;100996.77;107349;1254;107538;-63
2023/08/24 10:56:31;;;;;;;3.60;1.80;;;;;;;43.27;21.85;100991.41;107374;1254;97704;-63
2023/08/24 10:59:17;;;;;;;4.00;2.00;;;;;;;43.72;21.64;100985.55;107395;1257;97723;-62
2023/08/24 11:01:51;;;;;;;4.70;2.00;;;;;;;43.70;19.50;100985.48;107399;1258;111865;-63
2023/08/24 11:04:20;;;;;;;4.20;2.10;;;;;;;43.67;20.14;100976.68;107465;1254;109658;-62
2023/08/24 11:06:57;;;;;;;10.60;4.20;;;;;;;43.88;19.78;100972.34;107405;1254;108573;-63
2023/08/24 11:09:27;;;;;;;6.10;1.70;;;;;;;44.23;20.47;100961.14;107447;1254;97919;-62
2023/08/24 11:12:01;;;;;;;7.00;1.90;;;;;;;44.79;19.51;100958.16;107407;1254;97807;-64
2023/08/24 11:14:31;;;;;;;8.80;1.90;;;;;;;45.24;19.67;100952.77;107329;1254;112553;-63
2023/08/24 11:17:02;;;;;;;8.70;2.40;;;;;;;45.36;18.36;100951.35;107469;1257;108550;-63